weather.gov     
National Weather Service

Terminal Aerodrome Forecast
NWS Homepage
This page is being discontinued on March 12, 2014.
The same data is available at this site. Please update your bookmarks.
Thank you, and we apologize for the inconvenience.
Please send an email to SR-SRH.Webmaster@noaa.gov with any concerns.


Current Version
Previous Version:    01  02  03  04  05  06  07  08  09  10  11  12  13  14  15  16  17  18  19  20  21  22  23  24  25  26  27  28  29  30  
   31  32  33  
[Printable]
836
FTUS45 KBOI 242038 AAA
TAFBOI
TAF AMD
KBOI 242038Z 2421/2518 11007KT P6SM VCSH SCT045 OVC080
      TEMPO 2421/2423 25006G15KT P6SM -SHRA BKN035 OVC050
     FM250300 13006KT P6SM BKN050 OVC100
     FM250900 15008KT P6SM -RA BKN035 OVC050=




836
FTUS45 KBOI 242038 AAA
TAFBOI
TAF AMD
KBOI 242038Z 2421/2518 11007KT P6SM VCSH SCT045 OVC080
      TEMPO 2421/2423 25006G15KT P6SM -SHRA BKN035 OVC050
     FM250300 13006KT P6SM BKN050 OVC100
     FM250900 15008KT P6SM -RA BKN035 OVC050=


U.S. Dept. of Commerce
NOAA National Weather Service
1325 East West Highway
Silver Spring, MD 20910
E-mail: w-nws.webmaster@noaa.gov
Page last modified: May 16, 2007
NATIONAL WEATHER SERVICE: for Safety, for Work, for Fun - FOR LIFE